»·PEaware :: N100YK KTUS-KSEZ

N100YK :: KTUS-KSEZ

FLIGHT INFORMATION

Flight Status: Arrived
Operator: Privately registered:
United States
More flights under this callsign
Pilot: Douglas P. (36718)
Aircraft: CESSNA 172 SKYHAWK
(C172)
More flights by this aircraft type
Origin: KTUS Tucson Intl
United States
Destination: KSEZ Sedona
United States
More flights between these airports :: More routes between these airports
Route:
File this flight plan on PilotEdge
Remarks:
Altitude:
(Current/Filed)
10,500ft
Speed:
(Current/Filed)
0kts
Departed: 22-Jun-23 04:51 PM
Arrived: 22-Jun-23 06:27 PM
Distance/Time
Traveled:
169nm/1:36
Distance/Time
To Go:
Arrived

Flight Plot

Page will automatically refresh every two minutes.

Flight plan parsing failed; only flown route is shown


Map Options




Map Legend


Flown Route
Filed Route
Departure Airport
Arrival Airport
Navaid (VOR, NDB)
Fix

Horizontal Profiles

Position Reports

Time Latitude Longitude Heading Altitude Ground
Speed
22-Jun-23 16:40 32.126206 -110.944645 45 2572ft 0kts
22-Jun-23 16:41 32.126206 -110.944645 45 2572ft 0kts
22-Jun-23 16:42 32.126206 -110.944645 44 2572ft 0kts
22-Jun-23 16:43 32.126773 -110.944939 300 2570ft 9kts
22-Jun-23 16:44 32.124347 -110.946637 134 2571ft 13kts
22-Jun-23 16:45 32.121385 -110.943134 135 2585ft 21kts
22-Jun-23 16:46 32.116067 -110.936898 136 2601ft 28kts
22-Jun-23 16:47 32.111692 -110.932105 189 2617ft 11kts
22-Jun-23 16:48 32.111401 -110.932308 227 2617ft 0kts
22-Jun-23 16:49 32.111401 -110.932308 227 2617ft 0kts
22-Jun-23 16:50 32.112604 -110.935275 315 2613ft 51kts
22-Jun-23 16:51 32.129124 -110.954211 314 3065ft 88kts
22-Jun-23 16:52 32.147794 -110.969422 339 3738ft 85kts
22-Jun-23 16:53 32.170975 -110.978375 337 4374ft 84kts
22-Jun-23 16:54 32.192461 -110.990583 327 4985ft 85kts
22-Jun-23 16:55 32.211525 -111.006183 322 5567ft 86kts
22-Jun-23 16:56 32.233008 -111.019272 330 6121ft 90kts
22-Jun-23 16:57 32.254585 -111.034573 324 6695ft 86kts
22-Jun-23 16:58 32.277086 -111.047942 333 7184ft 89kts
22-Jun-23 16:59 32.298156 -111.062826 326 7655ft 91kts
22-Jun-23 17:00 32.321586 -111.075214 336 8097ft 94kts
22-Jun-23 17:01 32.345649 -111.087012 336 8593ft 88kts
22-Jun-23 17:02 32.369356 -111.098230 338 8997ft 92kts
22-Jun-23 17:03 32.391053 -111.113578 313 9431ft 90kts
22-Jun-23 17:04 32.413084 -111.126548 333 9814ft 87kts
22-Jun-23 17:05 32.435993 -111.136641 331 10155ft 88kts
22-Jun-23 17:06 32.459322 -111.151502 336 10442ft 93kts
22-Jun-23 17:07 32.483936 -111.166826 331 10552ft 109kts
22-Jun-23 17:08 32.512592 -111.175593 339 10677ft 112kts
22-Jun-23 17:09 32.542635 -111.194061 340 10444ft 120kts
22-Jun-23 17:10 32.572385 -111.211427 343 10385ft 115kts
22-Jun-23 17:11 32.601504 -111.224162 336 10450ft 113kts
22-Jun-23 17:12 32.630709 -111.239343 334 10450ft 114kts
22-Jun-23 17:13 32.659464 -111.255860 330 10451ft 114kts
22-Jun-23 17:14 32.686322 -111.276028 322 10453ft 114kts
22-Jun-23 17:15 32.713257 -111.296053 328 10458ft 114kts
22-Jun-23 17:16 32.740637 -111.315530 328 10466ft 114kts
22-Jun-23 17:17 32.769298 -111.331913 339 10455ft 115kts
22-Jun-23 17:18 32.798850 -111.345406 337 10503ft 113kts
22-Jun-23 17:19 32.827883 -111.360918 332 10499ft 114kts
22-Jun-23 17:20 32.856479 -111.377407 332 10522ft 114kts
22-Jun-23 17:21 32.885246 -111.393274 331 10530ft 114kts
22-Jun-23 17:22 32.913931 -111.410109 330 10546ft 114kts
22-Jun-23 17:23 32.941402 -111.429221 336 10539ft 114kts
22-Jun-23 17:24 32.973233 -111.432141 349 10528ft 115kts
22-Jun-23 17:25 33.004781 -111.438772 348 10530ft 115kts
22-Jun-23 17:26 33.036682 -111.444402 351 10529ft 115kts
22-Jun-23 17:27 33.068357 -111.449958 349 10536ft 115kts
22-Jun-23 17:28 33.100270 -111.457578 346 10507ft 115kts
22-Jun-23 17:29 33.131596 -111.465828 345 10510ft 115kts
22-Jun-23 17:30 33.163178 -111.473835 349 10493ft 116kts
22-Jun-23 17:31 33.195043 -111.479258 348 10501ft 115kts
22-Jun-23 17:32 33.226609 -111.485308 350 10511ft 114kts
22-Jun-23 17:33 33.258566 -111.489630 1 10500ft 115kts
22-Jun-23 17:34 33.290432 -111.492362 350 10514ft 114kts
22-Jun-23 17:35 33.322374 -111.497470 350 10505ft 116kts
22-Jun-23 17:36 33.353903 -111.504317 345 10520ft 115kts
22-Jun-23 17:37 33.385607 -111.510563 345 10521ft 115kts
22-Jun-23 17:38 33.416958 -111.518653 354 10513ft 115kts
22-Jun-23 17:39 33.448723 -111.524684 355 10494ft 116kts
22-Jun-23 17:40 33.480732 -111.528120 351 10502ft 116kts
22-Jun-23 17:41 33.512727 -111.533274 346 10473ft 117kts
22-Jun-23 17:42 33.544473 -111.540730 350 10477ft 115kts
22-Jun-23 17:44 33.575893 -111.546745 350 10483ft 115kts
22-Jun-23 17:45 33.607275 -111.553671 348 10482ft 115kts
22-Jun-23 17:46 33.638304 -111.562281 348 10487ft 114kts
22-Jun-23 17:47 33.669303 -111.570872 343 10513ft 114kts
22-Jun-23 17:48 33.699121 -111.583821 327 10508ft 115kts
22-Jun-23 17:49 33.730989 -111.587485 353 10493ft 115kts
22-Jun-23 17:50 33.762934 -111.585146 0 10492ft 115kts
22-Jun-23 17:51 33.794992 -111.587357 354 10494ft 116kts
22-Jun-23 17:52 33.827260 -111.590370 354 10496ft 116kts
22-Jun-23 17:53 33.859509 -111.593471 354 10496ft 116kts
22-Jun-23 17:54 33.891832 -111.597215 350 10496ft 116kts
22-Jun-23 17:55 33.923692 -111.603167 349 10495ft 116kts
22-Jun-23 17:56 33.955576 -111.609212 349 10495ft 116kts
22-Jun-23 17:57 33.987564 -111.615363 349 10495ft 116kts
22-Jun-23 17:58 34.019370 -111.621571 349 10495ft 116kts
22-Jun-23 17:59 34.051199 -111.627873 349 10494ft 115kts
22-Jun-23 18:00 34.082962 -111.634244 349 10494ft 115kts
22-Jun-23 18:01 34.114838 -111.639872 350 10494ft 116kts
22-Jun-23 18:02 34.146757 -111.645403 350 10494ft 116kts
22-Jun-23 18:03 34.178777 -111.651048 350 10493ft 116kts
22-Jun-23 18:04 34.210706 -111.656779 350 10493ft 116kts
22-Jun-23 18:05 34.242731 -111.662638 350 10492ft 115kts
22-Jun-23 18:06 34.274486 -111.668491 350 10492ft 115kts
22-Jun-23 18:07 34.306418 -111.675288 345 10363ft 113kts
22-Jun-23 18:08 34.339017 -111.679766 355 9887ft 122kts
22-Jun-23 18:09 34.373998 -111.680285 1 9310ft 125kts
22-Jun-23 18:10 34.408680 -111.685367 352 8688ft 130kts
22-Jun-23 18:10 34.437560 -111.690184 349 8358ft 120kts
22-Jun-23 18:12 34.474911 -111.704316 334 8089ft 119kts
22-Jun-23 18:13 34.506087 -111.718035 341 8074ft 118kts
22-Jun-23 18:14 34.537786 -111.730666 341 7993ft 122kts
22-Jun-23 18:15 34.570614 -111.738886 350 7975ft 119kts
22-Jun-23 18:15 34.597708 -111.744861 344 7896ft 124kts
22-Jun-23 18:16 34.630575 -111.752059 352 7384ft 118kts
22-Jun-23 18:18 34.668237 -111.758678 349 7076ft 119kts
22-Jun-23 18:19 34.701662 -111.765274 352 7103ft 123kts
22-Jun-23 18:19 34.730235 -111.769077 352 7147ft 122kts
22-Jun-23 18:20 34.764784 -111.773477 352 7114ft 125kts
22-Jun-23 18:21 34.799066 -111.777400 354 6821ft 117kts
22-Jun-23 18:22 34.832206 -111.779458 18 5844ft 119kts
22-Jun-23 18:23 34.853427 -111.755588 8 5535ft 94kts
22-Jun-23 18:24 34.863499 -111.771960 211 5191ft 87kts
22-Jun-23 18:25 34.848936 -111.788014 222 4785ft 41kts
22-Jun-23 18:26 34.849096 -111.788946 309 4784ft 9kts
22-Jun-23 18:27 34.849205 -111.789627 135 4786ft 0kts

Navigation Log

Ident Type
Flight plan parsing failed, navigation log unavailable